createdAt,value
2019-06-08T00:00:18.545Z,3.7
2019-06-08T00:05:19.206Z,3.2
2019-06-08T00:10:24.193Z,4.4
2019-06-08T00:15:19.954Z,3.1
2019-06-08T00:20:17.994Z,3.5
2019-06-08T00:25:19.489Z,3.5
2019-06-08T00:30:17.456Z,3.3
2019-06-08T00:35:18.553Z,1.9
2019-06-08T00:40:18.715Z,3.7
2019-06-08T00:45:17.543Z,3.6
2019-06-08T00:50:18.658Z,3.5
2019-06-08T00:55:17.725Z,3.6
2019-06-08T01:00:18.564Z,3.1
2019-06-08T01:05:18.076Z,3.2
2019-06-08T01:10:17.087Z,2.4
2019-06-08T01:15:23.484Z,3
2019-06-08T01:20:17.545Z,2.7
2019-06-08T01:25:17.500Z,2.1
2019-06-08T01:30:17.573Z,2.6
2019-06-08T01:35:17.664Z,2.4
2019-06-08T01:40:17.896Z,2.2
2019-06-08T01:45:17.936Z,2.3
2019-06-08T01:50:16.844Z,2.1
2019-06-08T01:55:17.726Z,1.4
2019-06-08T02:00:34.832Z,2
2019-06-08T02:05:17.798Z,1.7
2019-06-08T02:10:16.787Z,1.9
2019-06-08T02:15:17.889Z,1.6
2019-06-08T02:20:17.003Z,1.8
2019-06-08T02:25:17.027Z,2
2019-06-08T02:30:16.977Z,1.6
2019-06-08T02:35:16.912Z,2.1
2019-06-08T02:40:16.932Z,1
2019-06-08T02:45:16.833Z,1.9
2019-06-08T02:50:17.733Z,1.3
2019-06-08T02:55:17.635Z,1.6
2019-06-08T03:00:17.547Z,1.1
2019-06-08T03:05:17.634Z,1.7
2019-06-08T03:10:17.900Z,1.5
2019-06-08T03:15:16.835Z,2
2019-06-08T03:20:16.913Z,1.8
2019-06-08T03:25:17.312Z,1.5
2019-06-08T03:30:19.843Z,1.4
2019-06-08T03:35:16.973Z,1.5
2019-06-08T03:40:17.153Z,1
2019-06-08T03:45:17.083Z,1.4
2019-06-08T03:50:16.984Z,0.7
2019-06-08T03:55:17.081Z,1.4
2019-06-08T04:00:16.996Z,1.1
2019-06-08T04:05:16.894Z,0.9
2019-06-08T04:10:17.074Z,0.3
2019-06-08T04:15:16.972Z,1.3
2019-06-08T04:20:17.222Z,1.4
2019-06-08T04:25:17.291Z,1.6
2019-06-08T04:30:17.182Z,0.9
2019-06-08T04:35:17.090Z,1.3
2019-06-08T04:40:17.330Z,1.2
2019-06-08T04:45:17.231Z,1.5
2019-06-08T04:50:24.379Z,0.5
2019-06-08T04:55:22.379Z,1.1
2019-06-08T05:00:17.272Z,0.4
2019-06-08T05:05:22.223Z,1.3
2019-06-08T05:10:17.261Z,1.4
2019-06-08T05:15:17.152Z,0.1
2019-06-08T05:20:17.291Z,1.4
2019-06-08T05:25:17.340Z,0.4
2019-06-08T05:30:17.481Z,1.2
2019-06-08T05:35:17.370Z,1.6
2019-06-08T05:40:17.600Z,1.3
2019-06-08T05:45:17.459Z,0.9
2019-06-08T05:50:17.531Z,0.5
2019-06-08T05:55:22.479Z,1.2
2019-06-08T06:00:17.600Z,0.9
2019-06-08T06:05:17.658Z,1.2
2019-06-08T06:10:17.653Z,0.9
2019-06-08T06:15:17.538Z,0.3
2019-06-08T06:20:17.588Z,0.5
2019-06-08T06:25:17.820Z,0.9
2019-06-08T06:30:17.958Z,1.3
2019-06-08T06:35:16.819Z,0.5
2019-06-08T06:40:16.839Z,0.6
2019-06-08T06:45:17.899Z,0.7
2019-06-08T06:50:17.958Z,0.6
2019-06-08T06:55:16.999Z,0.8
2019-06-08T07:00:17.088Z,0.2
2019-06-08T07:05:17.129Z,0.8
2019-06-08T07:10:17.153Z,1.6
2019-06-08T07:15:17.028Z,0.3
2019-06-08T07:20:17.110Z,0.3
2019-06-08T07:25:16.986Z,0.6
2019-06-08T07:30:16.979Z,0
2019-06-08T07:35:17.027Z,0.3
2019-06-08T07:40:17.040Z,0.5
2019-06-08T07:45:16.937Z,0.5
2019-06-08T07:50:16.991Z,0.7
2019-06-08T07:55:17.036Z,0.6
2019-06-08T08:00:16.939Z,0.6
2019-06-08T08:05:17.009Z,0.7
2019-06-08T08:10:17.179Z,0.5
2019-06-08T08:15:17.357Z,1.2
2019-06-08T08:20:17.439Z,0.3
2019-06-08T08:25:18.535Z,1.2
2019-06-08T08:30:20.503Z,0.8
2019-06-08T08:35:18.806Z,0.4
2019-06-08T08:40:18.117Z,1.2
2019-06-08T08:45:18.556Z,0.3
2019-06-08T08:50:18.686Z,1.2
2019-06-08T08:55:20.719Z,1.1
2019-06-08T09:00:18.407Z,0.6
2019-06-08T09:05:18.637Z,0.5
2019-06-08T09:10:18.775Z,0.6
2019-06-08T09:15:19.665Z,0.5
2019-06-08T09:20:19.697Z,0.8
2019-06-08T09:25:18.537Z,1.4
2019-06-08T09:30:18.704Z,0.4
2019-06-08T09:35:21.544Z,1.3
2019-06-08T09:40:17.835Z,0.5
2019-06-08T09:45:18.536Z,0.6
2019-06-08T09:50:18.953Z,1.3
2019-06-08T09:55:18.405Z,0.7
2019-06-08T10:00:25.508Z,0.3
2019-06-08T10:05:18.807Z,0.9
2019-06-08T10:10:18.580Z,1.1
2019-06-08T10:15:18.358Z,2.1
2019-06-08T10:20:18.744Z,1.1
2019-06-08T10:25:17.656Z,1.1
2019-06-08T10:30:17.544Z,0.1
2019-06-08T10:35:21.206Z,0.9
2019-06-08T10:40:19.193Z,0.9
2019-06-08T10:45:18.881Z,1
2019-06-08T10:50:19.579Z,0.4
2019-06-08T10:55:18.334Z,0.4
2019-06-08T11:00:24.219Z,0.9
2019-06-08T11:05:18.505Z,0.8
2019-06-08T11:10:19.487Z,1.6
2019-06-08T11:15:17.589Z,1.7
2019-06-08T11:20:17.981Z,1
2019-06-08T11:25:20.072Z,0.9
2019-06-08T11:30:27.945Z,1.4
2019-06-08T11:35:18.024Z,0.6
2019-06-08T11:40:20.913Z,0.9
